Time;durP1;ratioP1;P1;durP2;ratioP2;P2;SDS_P1;SDS_P2;PMS_P1;PMS_P2;Temp;Humidity;BMP_temperature;BMP_pressure;BME280_temperature;BME280_humidity;BME280_pressure;Samples;Min_cycle;Max_cycle;Signal;HPM_P1;HPM_P2
2022/02/24 00:18:26;;;;;;;;;;;2.00;93.70;;;;;;5312104;22;19920;-73
2022/02/24 00:20:52;;;;;;;;;;;1.90;93.80;;;;;;5104272;28;19958;-71
2022/02/24 00:23:17;;;;;;;;;;;1.90;93.90;;;;;;5105241;28;20253;-72
2022/02/24 00:25:43;;;;;;;;;;;1.80;93.80;;;;;;5104089;28;20024;-73
2022/02/24 00:28:09;;;;;;;;;;;1.80;93.80;;;;;;5104184;28;19915;-72
2022/02/24 00:30:34;;;;;;;;;;;1.80;93.90;;;;;;5103832;28;20199;-72
2022/02/24 00:33:00;;;;;;;;;;;1.80;94.00;;;;;;5104214;28;19908;-72
2022/02/24 00:35:26;;;;;;;;;;;1.70;94.10;;;;;;5105291;28;19908;-72
2022/02/24 00:37:52;;;;;;;;;;;1.70;94.00;;;;;;5105218;28;19930;-72
2022/02/24 00:40:17;;;;;;;;;;;1.70;94.20;;;;;;5103864;28;19908;-72
2022/02/24 00:42:43;;;;;;;;;;;1.60;94.30;;;;;;5105304;28;19987;-72
2022/02/24 00:45:09;;;;;;;;;;;1.60;94.10;;;;;;5107561;28;20084;-72
2022/02/24 00:47:35;;;;;;;;;;;1.70;94.00;;;;;;5107094;28;19908;-73
2022/02/24 00:50:00;;;;;;;;;;;1.70;93.90;;;;;;5107176;28;19908;-72
2022/02/24 00:52:26;;;;;;;;;;;1.80;93.70;;;;;;5105763;28;19908;-71
2022/02/24 00:54:52;;;;;;;;;;;1.70;93.60;;;;;;5105382;28;19908;-71
2022/02/24 00:57:17;;;;;;;;;;;1.70;93.90;;;;;;5104094;28;19940;-71
2022/02/24 00:59:43;;;;;;;;;;;1.60;94.00;;;;;;5105047;28;19908;-71
2022/02/24 01:02:09;;;;;;;;;;;1.50;94.10;;;;;;5104936;28;19912;-71
2022/02/24 01:04:35;;;;;;;;;;;1.50;94.40;;;;;;5106145;28;19912;-71
2022/02/24 01:07:01;;;;;;;;;;;1.50;94.40;;;;;;5107561;28;19908;-71
2022/02/24 01:09:26;;;;;;;;;;;1.50;94.40;;;;;;5105916;28;20191;-71
2022/02/24 01:11:52;;;;;;;;;;;1.50;94.40;;;;;;5105873;28;19908;-71
2022/02/24 01:14:18;;;;;;;;;;;1.50;94.30;;;;;;5104662;28;19908;-71
2022/02/24 01:16:43;;;;;;;;;;;1.50;94.30;;;;;;5103311;28;19915;-71
2022/02/24 01:19:09;;;;;;;;;;;1.40;94.30;;;;;;5104524;28;19936;-71
2022/02/24 01:21:35;;;;;;;;;;;1.40;94.40;;;;;;5104829;28;19908;-71
2022/02/24 01:24:01;;;;;;;;;;;1.30;94.40;;;;;;5104700;28;20249;-71
2022/02/24 01:26:26;;;;;;;;;;;1.40;94.30;;;;;;5105404;28;19915;-71
2022/02/24 01:28:52;;;;;;;;;;;1.50;94.30;;;;;;5104273;28;20171;-71
2022/02/24 01:31:18;;;;;;;;;;;1.60;94.10;;;;;;5104231;28;19914;-70
2022/02/24 01:33:43;;;;;;;;;;;1.70;94.20;;;;;;5105556;28;20218;-70
2022/02/24 01:36:09;;;;;;;;;;;1.80;94.00;;;;;;5121254;28;19930;-71
2022/02/24 01:38:35;;;;;;;;;;;1.90;93.90;;;;;;5105312;28;19939;-70
2022/02/24 01:41:00;;;;;;;;;;;1.90;93.80;;;;;;5104926;28;20107;-70
2022/02/24 01:43:26;;;;;;;;;;;2.00;93.80;;;;;;5105333;28;19993;-70
2022/02/24 01:45:52;;;;;;;;;;;1.90;93.70;;;;;;5105311;28;19940;-71
2022/02/24 01:48:17;;;;;;;;;;;1.90;93.80;;;;;;5105260;28;19930;-71
2022/02/24 01:50:43;;;;;;;;;;;1.90;93.70;;;;;;5120781;28;19908;-71
2022/02/24 01:53:10;;;;;;;;;;;2.00;93.70;;;;;;5105102;28;19938;-72
2022/02/24 01:55:35;;;;;;;;;;;2.00;93.50;;;;;;5120627;28;19948;-71
2022/02/24 01:58:02;;;;;;;;;;;2.00;93.50;;;;;;5102807;28;19908;-71
2022/02/24 02:00:27;;;;;;;;;;;2.00;93.50;;;;;;5120574;28;19909;-71
2022/02/24 02:02:53;;;;;;;;;;;2.00;93.50;;;;;;5120665;28;19908;-73
2022/02/24 02:05:19;;;;;;;;;;;2.00;93.60;;;;;;5120724;28;19912;-72
2022/02/24 02:07:44;;;;;;;;;;;2.00;93.60;;;;;;5103735;28;19930;-72
2022/02/24 02:10:10;;;;;;;;;;;2.00;93.50;;;;;;5103488;28;19915;-72
2022/02/24 02:12:56;;;;;;;;;;;2.00;93.50;;;;;;5104232;28;19908;-72
2022/02/24 02:15:22;;;;;;;;;;;2.00;93.60;;;;;;5103065;28;19908;-71
2022/02/24 02:17:48;;;;;;;;;;;2.00;93.60;;;;;;5120310;28;20084;-71
2022/02/24 02:20:15;;;;;;;;;;;1.90;93.60;;;;;;5103293;28;19915;-71
2022/02/24 02:22:42;;;;;;;;;;;2.00;93.50;;;;;;5086103;28;19945;-70
2022/02/24 02:25:08;;;;;;;;;;;2.00;93.60;;;;;;5102683;28;19919;-71
2022/02/24 02:27:35;;;;;;;;;;;2.00;93.50;;;;;;5085907;28;19908;-71
2022/02/24 02:30:01;;;;;;;;;;;2.00;93.80;;;;;;5103110;28;19953;-70
2022/02/24 02:32:28;;;;;;;;;;;2.00;93.60;;;;;;5103000;28;20142;-70
2022/02/24 02:34:53;;;;;;;;;;;2.00;93.60;;;;;;5103233;28;19961;-70
2022/02/24 02:37:19;;;;;;;;;;;2.00;93.60;;;;;;5104114;28;19974;-70
2022/02/24 02:39:45;;;;;;;;;;;2.00;93.60;;;;;;5104061;28;19915;-72
2022/02/24 02:42:11;;;;;;;;;;;2.00;93.50;;;;;;5103635;28;19915;-72
2022/02/24 02:44:37;;;;;;;;;;;2.00;93.50;;;;;;5103138;28;19912;-71
2022/02/24 02:47:02;;;;;;;;;;;2.00;93.50;;;;;;5104113;28;19912;-72
2022/02/24 02:49:28;;;;;;;;;;;1.90;93.60;;;;;;5104014;28;19912;-71
2022/02/24 02:51:54;;;;;;;;;;;1.90;93.80;;;;;;5103673;28;20151;-72
2022/02/24 02:54:20;;;;;;;;;;;1.80;93.80;;;;;;5103856;28;19915;-72
2022/02/24 02:56:46;;;;;;;;;;;1.90;93.90;;;;;;5102387;28;20115;-71
2022/02/24 02:59:14;;;;;;;;;;;1.90;93.90;;;;;;5102541;28;20282;-72
2022/02/24 03:01:40;;;;;;;;;;;1.90;94.00;;;;;;5102350;28;20226;-72
2022/02/24 03:04:05;;;;;;;;;;;1.90;93.90;;;;;;5119508;28;19919;-71
2022/02/24 03:06:31;;;;;;;;;;;2.00;93.90;;;;;;5102611;28;19949;-71
2022/02/24 03:08:57;;;;;;;;;;;2.00;93.80;;;;;;5119363;28;19912;-72
2022/02/24 03:11:22;;;;;;;;;;;2.00;93.80;;;;;;5119244;28;19908;-72
2022/02/24 03:13:48;;;;;;;;;;;1.90;94.20;;;;;;5103553;28;20202;-70
2022/02/24 03:16:14;;;;;;;;;;;2.00;93.90;;;;;;5103442;28;20262;-70
2022/02/24 03:18:39;;;;;;;;;;;2.00;93.80;;;;;;5103292;28;19965;-69
2022/02/24 03:21:05;;;;;;;;;;;1.90;94.00;;;;;;5097115;28;19912;-70
2022/02/24 03:23:31;;;;;;;;;;;1.90;94.20;;;;;;5084289;28;20033;-70
2022/02/24 03:25:56;;;;;;;;;;;2.00;94.20;;;;;;5082039;28;19916;-71
2022/02/24 03:28:23;;;;;;;;;;;2.10;93.80;;;;;;5102753;28;20025;-70
2022/02/24 03:30:49;;;;;;;;;;;2.20;93.70;;;;;;5103012;28;20412;-71
2022/02/24 03:33:15;;;;;;;;;;;2.20;93.40;;;;;;5118878;28;19912;-71
2022/02/24 03:35:43;;;;;;;;;;;2.10;93.50;;;;;;5085219;28;20258;-70
2022/02/24 03:38:09;;;;;;;;;;;2.20;93.70;;;;;;5101535;28;19915;-70
2022/02/24 03:40:34;;;;;;;;;;;2.20;93.50;;;;;;5085014;28;20138;-70
2022/02/24 03:43:00;;;;;;;;;;;2.20;93.50;;;;;;5084897;28;20170;-71
2022/02/24 03:45:26;;;;;;;;;;;2.20;93.70;;;;;;5085102;28;19954;-71
2022/02/24 03:47:52;;;;;;;;;;;2.10;93.80;;;;;;5103037;28;20157;-70
2022/02/24 03:50:17;;;;;;;;;;;2.20;93.80;;;;;;5102888;28;20248;-70
2022/02/24 03:52:43;;;;;;;;;;;2.10;93.80;;;;;;5102666;28;19950;-70
2022/02/24 03:55:09;;;;;;;;;;;2.10;93.90;;;;;;5101712;28;20013;-70
2022/02/24 03:57:35;;;;;;;;;;;2.10;94.00;;;;;;5101762;28;19912;-71
2022/02/24 04:00:01;;;;;;;;;;;2.30;93.90;;;;;;5101812;28;19954;-71
2022/02/24 04:02:26;;;;;;;;;;;2.20;93.90;;;;;;5101555;28;20237;-71
2022/02/24 04:04:52;;;;;;;;;;;2.20;93.90;;;;;;5102845;28;19948;-71
2022/02/24 04:07:18;;;;;;;;;;;2.30;93.90;;;;;;5118796;28;19951;-71
2022/02/24 04:09:43;;;;;;;;;;;2.40;93.80;;;;;;5102823;28;19908;-71
2022/02/24 04:12:10;;;;;;;;;;;2.40;93.80;;;;;;5102321;28;20141;-70
2022/02/24 04:14:36;;;;;;;;;;;2.50;93.50;;;;;;5101621;28;19993;-71
2022/02/24 04:17:02;;;;;;;;;;;2.60;93.30;;;;;;5101587;28;19918;-70
2022/02/24 04:19:28;;;;;;;;;;;2.70;93.10;;;;;;5112271;22;20217;-69
2022/02/24 04:21:53;;;;;;;;;;;2.80;93.10;;;;;;5058892;28;19948;-71
2022/02/24 04:24:19;;;;;;;;;;;2.80;92.90;;;;;;5045016;28;19913;-71
2022/02/24 04:26:45;;;;;;;;;;;2.80;93.10;;;;;;5044227;28;19972;-71
2022/02/24 04:29:10;;;;;;;;;;;2.80;93.10;;;;;;5040461;28;19984;-72
2022/02/24 04:31:36;;;;;;;;;;;2.90;92.80;;;;;;5021934;28;19932;-74
2022/02/24 04:34:02;;;;;;;;;;;2.90;92.70;;;;;;5040630;28;19909;-71
2022/02/24 04:36:27;;;;;;;;;;;3.00;92.50;;;;;;5043394;28;19909;-71
2022/02/24 04:38:53;;;;;;;;;;;3.00;92.40;;;;;;5044709;28;19909;-68
2022/02/24 04:41:19;;;;;;;;;;;3.00;92.40;;;;;;5044822;28;19941;-69
2022/02/24 04:43:44;;;;;;;;;;;3.00;92.40;;;;;;5043118;28;19944;-71
2022/02/24 04:46:10;;;;;;;;;;;3.00;92.50;;;;;;5025814;28;19915;-71
2022/02/24 04:48:36;;;;;;;;;;;2.90;92.50;;;;;;5045161;28;19913;-71
2022/02/24 04:51:02;;;;;;;;;;;3.00;92.50;;;;;;5046452;28;19916;-71
2022/02/24 04:53:27;;;;;;;;;;;2.90;92.50;;;;;;5047669;28;19948;-70
2022/02/24 04:55:53;;;;;;;;;;;2.90;92.60;;;;;;5049597;28;19959;-70
2022/02/24 04:58:19;;;;;;;;;;;3.00;92.60;;;;;;5049739;28;19931;-70
2022/02/24 05:00:45;;;;;;;;;;;3.00;92.50;;;;;;5048716;28;19909;-70
2022/02/24 05:03:11;;;;;;;;;;;3.10;92.30;;;;;;5049211;28;19909;-72
2022/02/24 05:05:37;;;;;;;;;;;3.10;92.20;;;;;;5028064;28;19960;-72
2022/02/24 05:08:03;;;;;;;;;;;3.10;92.20;;;;;;5045051;28;19909;-71
2022/02/24 05:10:29;;;;;;;;;;;3.10;92.10;;;;;;5044619;28;19931;-72
2022/02/24 05:12:55;;;;;;;;;;;3.10;92.40;;;;;;5044545;28;19951;-72
2022/02/24 05:15:21;;;;;;;;;;;3.00;92.50;;;;;;5045771;28;19909;-73
2022/02/24 05:17:46;;;;;;;;;;;3.00;92.30;;;;;;5045776;28;19955;-72
2022/02/24 05:20:12;;;;;;;;;;;3.10;92.30;;;;;;5045430;28;20008;-72
2022/02/24 05:22:41;;;;;;;;;;;3.10;92.10;;;;;;5044357;28;19976;-72
2022/02/24 05:25:08;;;;;;;;;;;3.10;92.10;;;;;;5011827;28;19913;-72
2022/02/24 05:27:34;;;;;;;;;;;3.20;92.20;;;;;;5044351;28;19909;-72
2022/02/24 05:29:59;;;;;;;;;;;3.20;92.00;;;;;;5045496;28;19916;-72
2022/02/24 05:32:25;;;;;;;;;;;3.20;92.00;;;;;;5047475;28;19909;-70
2022/02/24 05:34:51;;;;;;;;;;;3.30;92.00;;;;;;5047196;28;19998;-72
2022/02/24 05:37:17;;;;;;;;;;;3.30;92.00;;;;;;5044858;28;19909;-71
2022/02/24 05:39:43;;;;;;;;;;;3.30;92.00;;;;;;5046225;28;19916;-72
2022/02/24 05:42:09;;;;;;;;;;;3.30;92.10;;;;;;5044684;28;19918;-71
2022/02/24 05:44:34;;;;;;;;;;;3.30;92.10;;;;;;5046022;28;19936;-71
2022/02/24 05:47:00;;;;;;;;;;;3.30;92.00;;;;;;5045518;28;20219;-71
2022/02/24 05:49:26;;;;;;;;;;;3.20;92.30;;;;;;5062173;28;19912;-71
2022/02/24 05:51:52;;;;;;;;;;;3.20;92.40;;;;;;5046298;28;19909;-72
2022/02/24 05:54:17;;;;;;;;;;;3.30;92.30;;;;;;5045849;28;19940;-69
2022/02/24 05:56:43;;;;;;;;;;;3.30;92.00;;;;;;5046356;28;19921;-72
2022/02/24 05:59:09;;;;;;;;;;;3.30;92.30;;;;;;5043020;28;19976;-73
2022/02/24 06:01:34;;;;;;;;;;;3.30;92.40;;;;;;5044266;28;19916;-73
2022/02/24 06:04:00;;;;;;;;;;;3.40;92.00;;;;;;5043698;28;20255;-73
2022/02/24 06:06:26;;;;;;;;;;;3.40;92.20;;;;;;5043433;28;19915;-73
2022/02/24 06:08:51;;;;;;;;;;;3.30;92.10;;;;;;5027055;28;20218;-73
2022/02/24 06:11:17;;;;;;;;;;;3.40;92.10;;;;;;5044614;28;20411;-73
2022/02/24 06:13:43;;;;;;;;;;;3.50;91.80;;;;;;5044666;28;19913;-72
2022/02/24 06:16:08;;;;;;;;;;;3.50;91.80;;;;;;5044694;28;20019;-73
2022/02/24 06:18:34;;;;;;;;;;;3.60;91.70;;;;;;5044444;28;19916;-73
2022/02/24 06:21:00;;;;;;;;;;;3.70;91.60;;;;;;5043714;28;19945;-73
2022/02/24 06:23:26;;;;;;;;;;;3.60;91.70;;;;;;5043389;28;20343;-73
2022/02/24 06:25:51;;;;;;;;;;;3.60;92.50;;;;;;5043392;28;19909;-73
2022/02/24 06:28:17;;;;;;;;;;;3.60;92.20;;;;;;5044159;28;20208;-73
2022/02/24 06:30:43;;;;;;;;;;;3.70;91.90;;;;;;5044795;28;19989;-71
2022/02/24 06:33:09;;;;;;;;;;;3.80;91.60;;;;;;5044700;28;19909;-71
2022/02/24 06:35:34;;;;;;;;;;;3.80;91.50;;;;;;5044181;28;20103;-72
2022/02/24 06:38:01;;;;;;;;;;;3.80;91.50;;;;;;5044559;28;19993;-69
2022/02/24 06:40:27;;;;;;;;;;;3.80;91.30;;;;;;5044103;28;19909;-71
2022/02/24 06:42:53;;;;;;;;;;;3.90;91.30;;;;;;5043824;28;20246;-71
2022/02/24 06:45:19;;;;;;;;;;;3.90;91.50;;;;;;5042937;28;19978;-71
2022/02/24 06:47:44;;;;;;;;;;;3.90;91.40;;;;;;5043990;28;19913;-71
2022/02/24 06:50:11;;;;;;;;;;;3.90;91.40;;;;;;5043570;28;19909;-71
2022/02/24 06:52:39;;;;;;;;;;;3.90;91.40;;;;;;5043742;28;19909;-71
2022/02/24 06:55:06;;;;;;;;;;;3.80;91.50;;;;;;5042527;28;19913;-71
2022/02/24 06:57:42;;;;;;;;;;;3.90;91.30;;;;;;5042426;28;19909;-71
2022/02/24 07:00:08;;;;;;;;;;;4.00;91.30;;;;;;5043622;28;19909;-71
2022/02/24 07:02:34;;;;;;;;;;;4.00;91.20;;;;;;5043309;28;19916;-70
2022/02/24 07:05:00;;;;;;;;;;;4.00;91.20;;;;;;5043356;28;19951;-71
2022/02/24 07:07:25;;;;;;;;;;;4.00;91.30;;;;;;5043530;28;20089;-71
2022/02/24 07:09:51;;;;;;;;;;;4.00;91.30;;;;;;5043538;28;19909;-70
2022/02/24 07:12:17;;;;;;;;;;;4.20;90.90;;;;;;5042455;28;19909;-70
2022/02/24 07:14:42;;;;;;;;;;;4.20;90.90;;;;;;5043599;28;19920;-70
2022/02/24 07:17:08;;;;;;;;;;;4.20;90.80;;;;;;5043402;28;19913;-71
2022/02/24 07:19:34;;;;;;;;;;;4.30;90.70;;;;;;5043003;28;19913;-71
2022/02/24 07:21:59;;;;;;;;;;;4.20;90.70;;;;;;5043080;28;19917;-71
2022/02/24 07:24:25;;;;;;;;;;;4.30;90.80;;;;;;5041675;28;20213;-71
2022/02/24 07:26:51;;;;;;;;;;;4.40;90.60;;;;;;5043371;28;19909;-70
2022/02/24 07:29:17;;;;;;;;;;;4.40;90.70;;;;;;5043240;28;19967;-71
2022/02/24 07:31:43;;;;;;;;;;;4.40;90.70;;;;;;5042988;28;19955;-72
2022/02/24 07:34:09;;;;;;;;;;;4.50;90.80;;;;;;5058873;28;19972;-71
2022/02/24 07:36:39;;;;;;;;;;;4.60;90.40;;;;;;5043211;28;19909;-70
2022/02/24 07:39:05;;;;;;;;;;;4.60;90.10;;;;;;5043289;28;19947;-71
2022/02/24 07:41:30;;;;;;;;;;;4.70;90.50;;;;;;5041704;28;19913;-71
2022/02/24 07:43:56;;;;;;;;;;;4.70;90.10;;;;;;5043004;28;20318;-71
2022/02/24 07:46:22;;;;;;;;;;;4.70;90.20;;;;;;5042093;28;19947;-71
2022/02/24 07:48:47;;;;;;;;;;;4.70;90.10;;;;;;5043434;28;20131;-70
2022/02/24 07:51:13;;;;;;;;;;;4.70;90.00;;;;;;5043404;28;19909;-70
2022/02/24 07:53:39;;;;;;;;;;;4.80;90.00;;;;;;5043786;28;20089;-70
2022/02/24 07:56:05;;;;;;;;;;;4.80;89.90;;;;;;5038799;28;19964;-70
2022/02/24 07:58:30;;;;;;;;;;;4.90;89.90;;;;;;5026349;28;20675;-70
2022/02/24 08:00:56;;;;;;;;;;;5.00;89.50;;;;;;5043191;28;19917;-70
2022/02/24 08:03:22;;;;;;;;;;;5.00;89.40;;;;;;5041553;28;19910;-70
2022/02/24 08:05:47;;;;;;;;;;;5.20;89.20;;;;;;5023317;28;19929;-70
2022/02/24 08:08:13;;;;;;;;;;;5.20;89.60;;;;;;5024224;28;20085;-70
2022/02/24 08:10:39;;;;;;;;;;;5.30;88.60;;;;;;5023324;28;19910;-71
2022/02/24 08:13:05;;;;;;;;;;;5.50;88.20;;;;;;5023706;28;19976;-70
2022/02/24 08:15:30;;;;;;;;;;;5.50;87.80;;;;;;5042246;28;19920;-69
2022/02/24 08:17:56;;;;;;;;;;;5.60;87.80;;;;;;5033838;28;20215;-70
2022/02/24 08:20:22;;;;;;;;;;;5.70;87.90;;;;;;5032250;28;19952;-69
2022/02/24 08:22:49;;;;;;;;;;;5.70;88.70;;;;;;5032633;28;19909;-69
2022/02/24 08:25:17;;;;;;;;;;;5.80;87.80;;;;;;5044120;28;19967;-69
2022/02/24 08:27:44;;;;;;;;;;;5.80;87.10;;;;;;5079015;28;20272;-70
2022/02/24 08:30:11;;;;;;;;;;;5.80;87.40;;;;;;5046721;28;19947;-69
2022/02/24 08:32:38;;;;;;;;;;;5.80;87.80;;;;;;5046008;28;19909;-70
2022/02/24 08:35:04;;;;;;;;;;;5.80;87.90;;;;;;5046680;28;19909;-70
2022/02/24 08:37:30;;;;;;;;;;;5.80;88.20;;;;;;5045915;28;20143;-70
2022/02/24 08:39:56;;;;;;;;;;;5.80;88.40;;;;;;5046745;28;19909;-70
2022/02/24 08:42:22;;;;;;;;;;;5.90;88.60;;;;;;5046857;28;19951;-70
2022/02/24 08:44:49;;;;;;;;;;;6.00;88.40;;;;;;5046526;28;19914;-70
2022/02/24 08:47:15;;;;;;;;;;;6.10;88.00;;;;;;5046626;28;19940;-70
2022/02/24 08:49:41;;;;;;;;;;;6.20;88.10;;;;;;5045926;28;19909;-70
2022/02/24 08:52:07;;;;;;;;;;;6.20;88.10;;;;;;5046238;28;20011;-70
2022/02/24 08:54:32;;;;;;;;;;;6.30;87.60;;;;;;5045361;28;20139;-71
2022/02/24 08:57:02;;;;;;;;;;;6.30;87.50;;;;;;5062045;28;19909;-70
2022/02/24 08:59:27;;;;;;;;;;;6.30;87.00;;;;;;5044518;28;19909;-70
2022/02/24 09:01:53;;;;;;;;;;;6.50;86.80;;;;;;5046151;28;19976;-70
2022/02/24 09:04:19;;;;;;;;;;;6.50;86.50;;;;;;5046450;28;19952;-70
2022/02/24 09:06:45;;;;;;;;;;;6.60;86.60;;;;;;5046360;28;19909;-71
2022/02/24 09:09:11;;;;;;;;;;;6.60;86.20;;;;;;5045248;28;21484;-70
2022/02/24 09:11:37;;;;;;;;;;;6.60;86.30;;;;;;5046136;28;19947;-70
2022/02/24 09:14:03;;;;;;;;;;;6.60;86.30;;;;;;5045889;28;19917;-70
2022/02/24 09:16:28;;;;;;;;;;;6.70;86.20;;;;;;5046510;28;20219;-70
2022/02/24 09:18:54;;;;;;;;;;;6.80;86.20;;;;;;5046510;28;19917;-70
2022/02/24 09:21:20;;;;;;;;;;;6.80;86.30;;;;;;5046080;28;19980;-70
2022/02/24 09:23:46;;;;;;;;;;;6.80;86.30;;;;;;5046289;28;19916;-70
2022/02/24 09:26:11;;;;;;;;;;;6.90;86.00;;;;;;5065506;28;19954;-71
2022/02/24 09:28:37;;;;;;;;;;;6.90;86.00;;;;;;5063429;28;19909;-70
2022/02/24 09:31:03;;;;;;;;;;;7.00;85.70;;;;;;5045694;28;19909;-71
2022/02/24 09:33:29;;;;;;;;;;;7.00;85.50;;;;;;5046420;28;19976;-70
2022/02/24 09:35:54;;;;;;;;;;;7.10;85.80;;;;;;5045093;28;19955;-69
2022/02/24 09:38:20;;;;;;;;;;;7.10;86.00;;;;;;5045008;28;20383;-71
2022/02/24 09:40:49;;;;;;;;;;;7.10;86.10;;;;;;5036791;28;20208;-70
2022/02/24 09:43:15;;;;;;;;;;;7.10;85.60;;;;;;5041554;28;20112;-69
2022/02/24 09:45:41;;;;;;;;;;;7.30;85.50;;;;;;5026911;28;19920;-69
2022/02/24 09:48:08;;;;;;;;;;;7.40;85.20;;;;;;5032877;28;20154;-70
2022/02/24 09:50:35;;;;;;;;;;;7.50;85.20;;;;;;5035056;28;19992;-68
2022/02/24 09:53:02;;;;;;;;;;;7.70;85.30;;;;;;5039939;28;20188;-70
2022/02/24 09:55:28;;;;;;;;;;;7.80;84.10;;;;;;5028380;28;20231;-70
2022/02/24 09:57:54;;;;;;;;;;;7.80;84.00;;;;;;5041399;28;19917;-70
2022/02/24 10:00:20;;;;;;;;;;;8.00;83.70;;;;;;5042787;28;19909;-69
2022/02/24 10:02:46;;;;;;;;;;;8.10;83.40;;;;;;5034235;28;19909;-69
2022/02/24 10:05:13;;;;;;;;;;;8.20;83.30;;;;;;5040465;28;19917;-69
2022/02/24 10:07:40;;;;;;;;;;;8.30;82.50;;;;;;5027963;28;19913;-70
2022/02/24 10:10:31;;;;;;;;;;;8.40;82.60;;;;;;5039215;28;20259;-69
2022/02/24 10:13:11;;;;;;;;;;;8.50;82.40;;;;;;5052342;28;19965;-70
2022/02/24 10:15:58;;;;;;;;;;;8.70;82.10;;;;;;5039962;28;19936;-69
2022/02/24 10:18:26;;;;;;;;;;;8.70;80.90;;;;;;5029987;28;19967;-69
2022/02/24 10:21:00;;;;;;;;;;;8.90;81.00;;;;;;5097246;23;20020;-65
2022/02/24 10:23:53;;;;;;;;;;;9.00;80.90;;;;;;5094706;28;20017;-66
2022/02/24 10:26:18;;;;;;;;;;;9.20;79.80;;;;;;5087644;28;19944;-65
2022/02/24 10:28:51;;;;;;;;;;;9.40;79.20;;;;;;5091325;28;19932;-66
2022/02/24 10:31:22;;;;;;;;;;;9.60;78.70;;;;;;5076853;28;19957;-66
2022/02/24 10:34:06;;;;;;;;;;;9.70;77.90;;;;;;5079203;28;19908;-66
2022/02/24 10:36:33;;;;;;;;;;;9.90;78.00;;;;;;5069545;28;19916;-66
2022/02/24 10:39:22;;;;;;;;;;;10.20;77.80;;;;;;5071507;28;19938;-66
2022/02/24 10:41:49;;;;;;;;;;;10.40;77.80;;;;;;5078944;28;19908;-66
2022/02/24 10:44:25;;;;;;;;;;;10.80;75.30;;;;;;5067018;28;19935;-66
2022/02/24 10:47:13;;;;;;;;;;;11.00;74.40;;;;;;5081307;28;20257;-66
2022/02/24 10:49:40;;;;;;;;;;;11.20;73.30;;;;;;5082073;28;19908;-66
2022/02/24 10:52:19;;;;;;;;;;;11.30;73.20;;;;;;5065848;28;19909;-66
2022/02/24 10:54:59;;;;;;;;;;;11.50;72.50;;;;;;5072270;28;19955;-66
2022/02/24 10:57:26;;;;;;;;;;;11.60;71.20;;;;;;5061182;28;19909;-65
2022/02/24 10:59:52;;;;;;;;;;;11.90;71.10;;;;;;5068946;28;19961;-64
2022/02/24 11:02:18;;;;;;;;;;;12.10;70.20;;;;;;5082137;28;19983;-65
2022/02/24 11:04:44;;;;;;;;;;;12.40;68.30;;;;;;5082197;28;19919;-65
2022/02/24 11:07:10;;;;;;;;;;;12.60;68.00;;;;;;5082224;28;19954;-65
2022/02/24 11:09:40;;;;;;;;;;;12.90;66.40;;;;;;5082168;28;20163;-65
2022/02/24 11:12:07;;;;;;;;;;;13.00;65.80;;;;;;5081847;28;19955;-64
2022/02/24 11:14:34;;;;;;;;;;;13.30;63.70;;;;;;5081959;28;19983;-65
2022/02/24 11:17:04;;;;;;;;;;;13.40;63.70;;;;;;5081995;28;20204;-65
2022/02/24 11:19:31;;;;;;;;;;;13.50;63.40;;;;;;5081859;28;20064;-64
2022/02/24 11:21:57;;;;;;;;;;;14.30;60.70;;;;;;5081834;28;20146;-65
2022/02/24 11:24:22;;;;;;;;;;;15.20;57.20;;;;;;5080711;28;19920;-65
2022/02/24 11:27:00;;;;;;;;;;;16.20;53.80;;;;;;5080862;28;19915;-66
2022/02/24 11:29:49;;;;;;;;;;;17.20;50.80;;;;;;5066657;28;19975;-66
2022/02/24 11:32:16;;;;;;;;;;;18.30;48.00;;;;;;5081613;28;20152;-66
2022/02/24 11:35:07;;;;;;;;;;;19.60;44.10;;;;;;5070015;28;19920;-66
2022/02/24 11:37:56;;;;;;;;;;;20.00;42.60;;;;;;5077877;28;19909;-65
2022/02/24 11:40:26;;;;;;;;;;;20.00;42.20;;;;;;5071348;28;19916;-66
2022/02/24 11:43:05;;;;;;;;;;;19.70;43.00;;;;;;5072958;28;20243;-65
2022/02/24 11:45:46;;;;;;;;;;;20.80;41.50;;;;;;5070594;28;20145;-66
2022/02/24 11:48:12;;;;;;;;;;;22.50;38.40;;;;;;5074540;28;19920;-66
2022/02/24 11:50:54;;;;;;;;;;;23.50;36.20;;;;;;5069757;28;19908;-66
2022/02/24 11:53:25;;;;;;;;;;;23.90;35.00;;;;;;5071927;28;19924;-66
2022/02/24 11:55:59;;;;;;;;;;;23.70;34.80;;;;;;5070132;28;19930;-66
2022/02/24 11:58:34;;;;;;;;;;;23.20;35.90;;;;;;5074741;28;20145;-66
2022/02/24 12:01:10;;;;;;;;;;;22.90;36.30;;;;;;5075717;28;19920;-65
2022/02/24 12:03:45;;;;;;;;;;;22.30;37.30;;;;;;5076955;28;19909;-66
2022/02/24 12:06:11;;;;;;;;;;;22.90;36.30;;;;;;5075828;28;19927;-66
2022/02/24 12:09:02;;;;;;;;;;;22.50;37.50;;;;;;5073953;28;19912;-66
2022/02/24 12:11:28;;;;;;;;;;;22.80;36.30;;;;;;5076417;28;19928;-66
2022/02/24 12:13:54;;;;;;;;;;;23.10;35.00;;;;;;5085922;28;19943;-66
2022/02/24 12:16:22;;;;;;;;;;;22.40;35.70;;;;;;5087854;28;19935;-65
2022/02/24 12:18:49;;;;;;;;;;;22.00;36.50;;;;;;5088119;28;19909;-65
2022/02/24 12:21:31;;;;;;;;;;;22.00;37.10;;;;;;5087659;28;19912;-65
2022/02/24 12:24:02;;;;;;;;;;;21.50;37.80;;;;;;5087992;28;19912;-65
2022/02/24 12:26:40;;;;;;;;;;;21.80;36.90;;;;;;5088060;28;19980;-65
2022/02/24 12:29:26;;;;;;;;;;;21.70;37.10;;;;;;5087773;28;19912;-65
2022/02/24 12:31:57;;;;;;;;;;;21.20;38.30;;;;;;5067473;28;19995;-65
2022/02/24 12:34:23;;;;;;;;;;;21.00;38.30;;;;;;5066734;28;19977;-65
2022/02/24 12:36:49;;;;;;;;;;;21.80;37.60;;;;;;5068360;28;19913;-65
2022/02/24 12:39:15;;;;;;;;;;;21.90;36.40;;;;;;5077712;28;19985;-65
2022/02/24 12:41:40;;;;;;;;;;;21.40;38.20;;;;;;5077064;28;19909;-65
2022/02/24 12:44:22;;;;;;;;;;;20.80;38.80;;;;;;5084436;28;20169;-64
2022/02/24 12:46:48;;;;;;;;;;;19.20;41.10;;;;;;5070075;28;19916;-64
2022/02/24 12:49:13;;;;;;;;;;;18.00;44.50;;;;;;5077841;28;20049;-65
2022/02/24 12:51:39;;;;;;;;;;;17.90;44.90;;;;;;5087525;28;19951;-65
2022/02/24 12:54:05;;;;;;;;;;;17.70;45.10;;;;;;5085436;28;19950;-64
2022/02/24 12:56:37;;;;;;;;;;;17.50;45.50;;;;;;5087772;28;20095;-65
2022/02/24 12:59:07;;;;;;;;;;;16.90;48.00;;;;;;5087611;28;19908;-65
2022/02/24 13:01:35;;;;;;;;;;;17.00;47.90;;;;;;5086698;28;19924;-65
2022/02/24 13:04:00;;;;;;;;;;;17.30;47.50;;;;;;5087331;28;20208;-65
2022/02/24 13:06:32;;;;;;;;;;;17.10;47.90;;;;;;5087520;28;19954;-65
2022/02/24 13:11:42;;;;;;;;;;;16.20;50.80;;;;;;5076727;28;19919;-63
2022/02/24 13:14:10;;;;;;;;;;;15.40;53.80;;;;;;5081570;28;20123;-63
2022/02/24 13:16:36;;;;;;;;;;;15.20;55.20;;;;;;5074314;28;19915;-63
2022/02/24 13:19:04;;;;;;;;;;;14.80;56.40;;;;;;5072532;28;19936;-62
2022/02/24 13:21:29;;;;;;;;;;;14.60;57.70;;;;;;5073935;28;20089;-62
2022/02/24 13:23:59;;;;;;;;;;;14.60;58.50;;;;;;5071309;28;19943;-62
2022/02/24 13:26:32;;;;;;;;;;;14.30;59.80;;;;;;5074143;28;20200;-63
2022/02/24 13:28:57;;;;;;;;;;;14.00;61.30;;;;;;5079599;28;20199;-63
2022/02/24 13:31:23;;;;;;;;;;;13.80;62.60;;;;;;5083339;28;19954;-64
2022/02/24 13:33:48;;;;;;;;;;;13.70;63.70;;;;;;5083898;28;20107;-64
2022/02/24 13:36:14;;;;;;;;;;;13.50;65.00;;;;;;5084988;28;19912;-64
2022/02/24 13:38:42;;;;;;;;;;;13.40;65.80;;;;;;5072196;28;19944;-64
2022/02/24 13:41:14;;;;;;;;;;;13.50;66.40;;;;;;5075578;28;19979;-63
2022/02/24 13:43:41;;;;;;;;;;;13.80;65.20;;;;;;5078624;28;19931;-64
2022/02/24 13:46:07;;;;;;;;;;;14.40;63.20;;;;;;5083980;28;19916;-65
2022/02/24 13:48:40;;;;;;;;;;;14.70;62.10;;;;;;5072598;28;19925;-65
2022/02/24 13:51:06;;;;;;;;;;;14.90;60.70;;;;;;5080088;28;19908;-65
2022/02/24 13:53:35;;;;;;;;;;;14.80;60.00;;;;;;5080931;28;20019;-65
2022/02/24 13:56:01;;;;;;;;;;;14.60;59.50;;;;;;5071631;28;19947;-65
2022/02/24 13:58:31;;;;;;;;;;;14.40;61.10;;;;;;5075865;28;19932;-66
2022/02/24 14:00:58;;;;;;;;;;;14.40;59.90;;;;;;5074294;28;20030;-66
2022/02/24 14:03:34;;;;;;;;;;;14.20;58.20;;;;;;5072419;28;19920;-65
2022/02/24 14:06:09;;;;;;;;;;;14.00;58.10;;;;;;5080510;28;19916;-66
2022/02/24 14:08:38;;;;;;;;;;;14.00;59.30;;;;;;5066849;28;19919;-66
2022/02/24 14:11:09;;;;;;;;;;;14.00;58.80;;;;;;5067203;28;19912;-66
2022/02/24 14:13:35;;;;;;;;;;;14.00;58.00;;;;;;5081611;28;19983;-66
2022/02/24 14:16:01;;;;;;;;;;;13.90;58.30;;;;;;5080059;28;19950;-65
2022/02/24 14:18:27;;;;;;;;;;;13.90;58.70;;;;;;5084180;28;19996;-68
2022/02/24 14:20:53;;;;;;;;;;;13.70;59.10;;;;;;5100920;28;19912;-66
2022/02/24 14:23:19;;;;;;;;;;;13.60;59.50;;;;;;5084747;28;20089;-65
2022/02/24 14:25:45;;;;;;;;;;;13.60;60.10;;;;;;5100149;28;19935;-66
2022/02/24 14:28:10;;;;;;;;;;;13.40;60.30;;;;;;5074524;28;20211;-65
2022/02/24 14:30:36;;;;;;;;;;;13.30;61.30;;;;;;5074140;28;19971;-65
2022/02/24 14:33:02;;;;;;;;;;;13.20;61.90;;;;;;5074389;28;19909;-65
2022/02/24 14:35:27;;;;;;;;;;;13.20;61.90;;;;;;5072584;28;19913;-66
2022/02/24 14:37:53;;;;;;;;;;;13.10;62.30;;;;;;5074321;28;19943;-66
2022/02/24 14:40:19;;;;;;;;;;;13.00;63.30;;;;;;5073762;28;20210;-66
2022/02/24 14:42:44;;;;;;;;;;;13.00;63.20;;;;;;5072248;28;19920;-65
2022/02/24 14:45:10;;;;;;;;;;;13.00;62.90;;;;;;5074249;28;19912;-66
2022/02/24 14:47:36;;;;;;;;;;;13.00;62.70;;;;;;5063931;28;19980;-66